createdAt,value
2023-04-15T00:00:59.341Z,9.05
2023-04-15T00:03:26.023Z,7.68
2023-04-15T00:05:52.733Z,8.65
2023-04-15T00:08:20.391Z,8.30
2023-04-15T00:10:46.948Z,9.95
2023-04-15T00:13:13.472Z,9.25
2023-04-15T00:15:39.971Z,7.03
2023-04-15T00:18:07.947Z,10.48
2023-04-15T00:20:34.822Z,7.68
2023-04-15T00:23:02.547Z,6.90
2023-04-15T00:25:29.118Z,6.57
2023-04-15T00:27:55.600Z,7.88
2023-04-15T00:30:23.925Z,7.28
2023-04-15T00:32:50.786Z,7.35
2023-04-15T00:35:21.591Z,12.10
2023-04-15T00:37:48.294Z,7.82
2023-04-15T00:40:18.702Z,9.05
2023-04-15T00:42:45.501Z,8.50
2023-04-15T00:45:12.260Z,7.68
2023-04-15T00:47:41.455Z,10.80
2023-04-15T00:50:08.680Z,9.10
2023-04-15T00:52:35.116Z,8.55
2023-04-15T00:55:02.392Z,7.68
2023-04-15T00:57:30.109Z,6.82
2023-04-15T00:59:57.579Z,7.88
2023-04-15T01:02:24.574Z,7.90
2023-04-15T01:04:51.361Z,6.53
2023-04-15T01:07:18.004Z,8.77
2023-04-15T01:09:45.648Z,7.22
2023-04-15T01:12:14.181Z,7.97
2023-04-15T01:14:41.085Z,8.05
2023-04-15T01:17:07.507Z,7.80
2023-04-15T01:19:34.026Z,6.85
2023-04-15T01:22:00.529Z,7.70
2023-04-15T01:24:28.202Z,12.13
2023-04-15T01:26:54.855Z,5.90
2023-04-15T01:29:23.760Z,9.35
2023-04-15T01:31:52.563Z,10.70
2023-04-15T01:34:19.339Z,7.50
2023-04-15T01:36:46.295Z,9.20
2023-04-15T01:39:14.160Z,6.55
2023-04-15T01:41:42.240Z,7.90
2023-04-15T01:44:08.856Z,10.15
2023-04-15T01:46:37.136Z,7.85
2023-04-15T01:49:03.637Z,8.65
2023-04-15T01:51:32.224Z,7.85
2023-04-15T01:53:59.099Z,8.30
2023-04-15T01:56:25.627Z,6.53
2023-04-15T01:58:52.901Z,6.07
2023-04-15T02:01:20.099Z,11.85
2023-04-15T02:03:47.909Z,7.60
2023-04-15T02:06:15.282Z,8.32
2023-04-15T02:08:41.857Z,9.55
2023-04-15T02:11:08.410Z,8.25
2023-04-15T02:13:34.942Z,8.38
2023-04-15T02:16:01.500Z,6.78
2023-04-15T02:18:28.220Z,10.85
2023-04-15T02:20:56.345Z,7.90
2023-04-15T02:23:22.744Z,10.23
2023-04-15T02:25:54.061Z,8.07
2023-04-15T02:28:21.756Z,7.65
2023-04-15T02:30:52.675Z,10.30
2023-04-15T02:33:19.565Z,9.50
2023-04-15T02:35:46.459Z,7.10
2023-04-15T02:38:14.290Z,7.85
2023-04-15T02:40:41.062Z,8.15
2023-04-15T02:43:07.535Z,6.03
2023-04-15T02:45:34.874Z,7.40
2023-04-15T02:48:06.300Z,7.78
2023-04-15T02:50:33.338Z,8.25
2023-04-15T02:53:01.543Z,11.65
2023-04-15T02:55:29.177Z,8.65
2023-04-15T02:57:55.977Z,7.40
2023-04-15T03:00:25.102Z,7.55
2023-04-15T03:02:56.376Z,6.00
2023-04-15T03:05:26.152Z,8.57
2023-04-15T03:07:53.208Z,6.47
2023-04-15T03:10:21.241Z,8.57
2023-04-15T03:12:48.223Z,8.23
2023-04-15T03:15:19.353Z,7.28
2023-04-15T03:17:49.722Z,5.88
2023-04-15T03:20:16.867Z,6.55
2023-04-15T03:22:43.465Z,7.70
2023-04-15T03:25:10.112Z,9.30
2023-04-15T03:27:38.403Z,7.63
2023-04-15T03:30:06.554Z,7.32
2023-04-15T03:32:35.524Z,9.07
2023-04-15T03:35:02.020Z,9.50
2023-04-15T03:37:28.462Z,9.45
2023-04-15T03:39:54.942Z,9.32
2023-04-15T03:42:21.385Z,8.50
2023-04-15T03:44:47.840Z,8.35
2023-04-15T03:47:14.342Z,6.20
2023-04-15T03:49:41.394Z,7.40
2023-04-15T03:52:07.892Z,8.52
2023-04-15T03:54:34.276Z,11.90
2023-04-15T03:57:01.293Z,9.45
2023-04-15T03:59:27.706Z,7.65
2023-04-15T04:01:54.199Z,10.35
2023-04-15T04:04:21.073Z,10.50
2023-04-15T04:06:47.585Z,11.75
2023-04-15T04:09:14.028Z,9.63
2023-04-15T04:11:40.497Z,9.98
2023-04-15T04:14:06.930Z,8.27
2023-04-15T04:16:33.394Z,6.97
2023-04-15T04:19:00.029Z,6.80
2023-04-15T04:21:26.732Z,6.38
2023-04-15T04:23:53.206Z,9.20
2023-04-15T04:26:19.828Z,11.63
2023-04-15T04:28:46.521Z,7.70
2023-04-15T04:31:12.949Z,8.18
2023-04-15T04:33:39.682Z,7.45
2023-04-15T04:36:06.393Z,8.95
2023-04-15T04:38:32.852Z,9.45
2023-04-15T04:40:59.407Z,9.80
2023-04-15T04:43:26.043Z,9.68
2023-04-15T04:45:52.521Z,9.57
2023-04-15T04:48:19.791Z,7.72
2023-04-15T04:50:47.044Z,10.45
2023-04-15T04:53:13.602Z,10.25
2023-04-15T04:55:40.011Z,9.40
2023-04-15T04:58:06.837Z,8.55
2023-04-15T05:00:33.566Z,9.35
2023-04-15T05:03:00.624Z,10.50
2023-04-15T05:05:27.354Z,8.98
2023-04-15T05:07:53.781Z,8.10
2023-04-15T05:10:20.482Z,10.57
2023-04-15T05:12:47.074Z,10.43
2023-04-15T05:15:13.581Z,12.10
2023-04-15T05:17:40.209Z,8.93
2023-04-15T05:20:07.440Z,10.40
2023-04-15T05:22:34.041Z,11.15
2023-04-15T05:25:00.919Z,7.68
2023-04-15T05:27:27.381Z,8.13
2023-04-15T05:29:53.774Z,9.95
2023-04-15T05:32:20.711Z,11.15
2023-04-15T05:34:48.672Z,10.38
2023-04-15T05:37:15.578Z,9.18
2023-04-15T05:39:43.028Z,9.95
2023-04-15T05:42:09.497Z,9.05
2023-04-15T05:44:36.115Z,8.68
2023-04-15T05:47:04.595Z,9.15
2023-04-15T05:49:31.120Z,7.85
2023-04-15T05:51:57.643Z,8.63
2023-04-15T05:54:24.269Z,10.27
2023-04-15T05:56:50.950Z,8.55
2023-04-15T05:59:17.369Z,9.02
2023-04-15T06:01:45.172Z,10.98
2023-04-15T06:04:12.168Z,8.05
2023-04-15T06:06:38.691Z,12.40
2023-04-15T06:09:05.264Z,10.25
2023-04-15T06:11:31.827Z,9.63
2023-04-15T06:13:58.297Z,10.02
2023-04-15T06:16:24.906Z,15.27
2023-04-15T06:18:51.350Z,8.35
2023-04-15T06:21:17.888Z,10.30
2023-04-15T06:23:44.359Z,10.70
2023-04-15T06:26:11.468Z,10.65
2023-04-15T06:28:38.002Z,10.13
2023-04-15T06:31:04.629Z,12.20
2023-04-15T06:33:31.900Z,15.30
2023-04-15T06:35:58.378Z,12.88
2023-04-15T06:38:24.854Z,15.80
2023-04-15T06:40:51.508Z,14.93
2023-04-15T06:43:20.191Z,13.73
2023-04-15T06:45:47.191Z,11.20
2023-04-15T06:48:13.832Z,10.82
2023-04-15T06:50:40.628Z,9.02
2023-04-15T06:53:07.495Z,8.55
2023-04-15T06:55:34.350Z,9.18
2023-04-15T06:58:00.900Z,8.80
2023-04-15T07:00:28.590Z,6.82
2023-04-15T07:02:55.662Z,8.02
2023-04-15T07:05:22.176Z,7.10
2023-04-15T07:07:48.601Z,9.35
2023-04-15T07:10:15.868Z,8.48
2023-04-15T07:12:42.426Z,8.25
2023-04-15T07:15:09.124Z,8.35
2023-04-15T07:17:35.643Z,7.55
2023-04-15T07:20:02.558Z,9.60
2023-04-15T07:22:30.027Z,7.72
2023-04-15T07:24:56.602Z,10.43
2023-04-15T07:27:23.146Z,7.95
2023-04-15T07:29:51.414Z,8.70
2023-04-15T07:32:18.197Z,7.38
2023-04-15T07:34:44.790Z,9.05
2023-04-15T07:37:11.446Z,10.60
2023-04-15T07:39:38.201Z,6.93
2023-04-15T07:42:05.039Z,7.88
2023-04-15T07:44:31.608Z,6.63
2023-04-15T07:46:58.096Z,6.97
2023-04-15T07:49:26.650Z,5.90
2023-04-15T07:51:53.263Z,6.63
2023-04-15T07:54:19.780Z,7.07
2023-04-15T07:56:46.180Z,6.05
2023-04-15T07:59:13.039Z,6.60
2023-04-15T08:01:39.540Z,6.40
2023-04-15T08:04:06.218Z,6.13
2023-04-15T08:06:33.270Z,5.65
2023-04-15T08:09:00.341Z,5.07
2023-04-15T08:11:28.656Z,6.43
2023-04-15T08:13:55.314Z,6.22
2023-04-15T08:16:27.697Z,5.07
2023-04-15T08:18:55.991Z,5.50
2023-04-15T08:23:51.347Z,5.20
2023-04-15T08:26:18.836Z,6.15
2023-04-15T08:28:46.232Z,6.18
2023-04-15T08:31:14.793Z,5.55
2023-04-15T08:33:41.390Z,4.75
2023-04-15T08:36:08.483Z,4.53
2023-04-15T08:38:35.473Z,5.20
2023-04-15T08:41:07.308Z,6.72
2023-04-15T08:43:35.492Z,3.72
2023-04-15T08:48:29.637Z,4.65
2023-04-15T08:50:56.853Z,5.00
2023-04-15T08:53:24.674Z,5.10
2023-04-15T08:55:57.236Z,5.65
2023-04-15T08:58:24.600Z,5.88
2023-04-15T09:00:51.127Z,4.65
2023-04-15T09:03:17.873Z,4.90
2023-04-15T09:05:44.903Z,4.40
2023-04-15T09:08:11.900Z,5.88
2023-04-15T09:10:38.423Z,4.25
2023-04-15T09:13:05.744Z,5.03
2023-04-15T09:15:33.071Z,4.95
2023-04-15T09:17:59.548Z,4.60
2023-04-15T09:20:26.342Z,5.80
2023-04-15T09:22:52.877Z,4.07
2023-04-15T09:25:30.026Z,3.58
2023-04-15T09:28:01.629Z,3.10
2023-04-15T09:30:29.535Z,3.53
2023-04-15T09:33:02.382Z,3.50
2023-04-15T09:35:29.079Z,4.65
2023-04-15T09:38:07.384Z,4.95
2023-04-15T09:40:41.043Z,3.92
2023-04-15T09:43:09.690Z,4.63
2023-04-15T09:45:36.535Z,3.28
2023-04-15T09:48:23.448Z,3.95
2023-04-15T09:50:50.455Z,5.45
2023-04-15T09:53:19.132Z,4.47
2023-04-15T09:55:46.894Z,4.93
2023-04-15T09:58:24.536Z,3.70
2023-04-15T10:00:52.427Z,4.13
2023-04-15T10:03:24.780Z,4.80
2023-04-15T10:05:57.432Z,4.10
2023-04-15T10:08:26.060Z,5.13
2023-04-15T10:10:53.608Z,6.90
2023-04-15T10:13:24.804Z,3.83
2023-04-15T10:16:10.833Z,5.47
2023-04-15T10:18:42.901Z,3.10
2023-04-15T10:21:10.211Z,3.22
2023-04-15T10:23:37.978Z,3.10
2023-04-15T10:26:07.057Z,3.13
2023-04-15T10:28:33.511Z,3.72
2023-04-15T10:31:00.623Z,3.92
2023-04-15T10:33:28.832Z,3.83
2023-04-15T10:35:55.930Z,4.82
2023-04-15T10:38:43.180Z,3.47
2023-04-15T10:41:14.275Z,4.22
2023-04-15T10:43:52.859Z,5.10
2023-04-15T10:46:40.417Z,2.75
2023-04-15T10:49:25.856Z,4.05
2023-04-15T10:51:57.670Z,2.70
2023-04-15T10:54:27.205Z,2.85
2023-04-15T10:57:10.475Z,4.65
2023-04-15T10:59:39.089Z,3.75
2023-04-15T11:02:07.422Z,4.78
2023-04-15T11:07:41.958Z,3.78
2023-04-15T11:10:17.402Z,2.85
2023-04-15T11:12:50.811Z,2.97
2023-04-15T11:15:43.017Z,2.90
2023-04-15T11:18:18.492Z,4.40
2023-04-15T11:20:47.343Z,3.55
2023-04-15T11:23:19.561Z,4.05
2023-04-15T11:25:46.498Z,3.35
2023-04-15T11:28:13.544Z,3.80
2023-04-15T11:30:42.100Z,3.53
2023-04-15T11:33:10.347Z,2.65
2023-04-15T11:35:37.068Z,4.03
2023-04-15T11:38:10.292Z,3.65
2023-04-15T11:40:38.346Z,4.18
2023-04-15T11:43:13.780Z,5.03
2023-04-15T11:45:55.912Z,5.13
2023-04-15T11:48:28.229Z,3.70
2023-04-15T11:51:07.808Z,3.42
2023-04-15T11:53:42.598Z,2.80
2023-04-15T11:56:24.242Z,3.50
2023-04-15T11:58:59.352Z,3.95
2023-04-15T12:01:39.876Z,3.22
2023-04-15T12:04:20.173Z,4.18
2023-04-15T12:06:49.334Z,3.10
2023-04-15T12:09:16.666Z,4.20
2023-04-15T12:11:48.472Z,3.90
2023-04-15T12:14:24.419Z,4.05
2023-04-15T12:16:54.148Z,2.72
2023-04-15T12:19:31.805Z,3.70
2023-04-15T12:22:01.025Z,3.55
2023-04-15T12:24:28.355Z,2.47
2023-04-15T12:26:57.667Z,2.88
2023-04-15T12:29:29.040Z,1.58
2023-04-15T12:32:05.937Z,2.70
2023-04-15T12:34:58.173Z,4.10
2023-04-15T12:37:24.755Z,3.10
2023-04-15T12:39:52.236Z,3.70
2023-04-15T12:42:18.854Z,3.20
2023-04-15T12:44:46.172Z,2.20
2023-04-15T12:47:15.356Z,3.17
2023-04-15T12:49:41.996Z,2.35
2023-04-15T12:52:08.828Z,2.70
2023-04-15T12:54:36.055Z,3.47
2023-04-15T12:57:05.979Z,3.17
2023-04-15T12:59:33.206Z,4.32
2023-04-15T13:02:00.800Z,2.65
2023-04-15T13:04:30.525Z,3.70
2023-04-15T13:06:57.581Z,2.83
2023-04-15T13:09:24.060Z,3.25
2023-04-15T13:11:51.003Z,3.00
2023-04-15T13:14:17.694Z,2.20
2023-04-15T13:16:44.210Z,3.55
2023-04-15T13:19:10.682Z,3.38
2023-04-15T13:21:37.262Z,3.25
2023-04-15T13:24:04.831Z,4.78
2023-04-15T13:26:32.095Z,5.10
2023-04-15T13:28:59.759Z,3.78
2023-04-15T13:31:27.102Z,5.13
2023-04-15T13:33:53.562Z,5.47
2023-04-15T13:36:19.995Z,4.30
2023-04-15T13:38:47.124Z,2.17
2023-04-15T13:41:14.411Z,4.32
2023-04-15T13:43:41.469Z,5.13
2023-04-15T13:46:08.022Z,2.05
2023-04-15T13:48:34.479Z,2.35
2023-04-15T13:51:01.071Z,5.03
2023-04-15T13:53:37.631Z,3.65
2023-04-15T13:56:09.642Z,3.13
2023-04-15T13:58:37.391Z,3.38
2023-04-15T14:01:06.086Z,4.15
2023-04-15T14:03:33.667Z,3.92
2023-04-15T14:06:00.611Z,2.97
2023-04-15T14:08:27.040Z,1.60
2023-04-15T14:10:53.502Z,2.50
2023-04-15T14:13:19.945Z,1.92
2023-04-15T14:15:47.197Z,3.58
2023-04-15T14:18:13.658Z,3.97
2023-04-15T14:20:40.098Z,1.58
2023-04-15T14:23:06.753Z,2.80
2023-04-15T14:25:34.197Z,2.53
2023-04-15T14:28:01.666Z,3.20
2023-04-15T14:30:28.258Z,3.03
2023-04-15T14:32:54.761Z,3.08
2023-04-15T14:35:21.472Z,2.30
2023-04-15T14:37:47.889Z,8.10
2023-04-15T14:40:14.649Z,4.28
2023-04-15T14:42:41.114Z,3.53
2023-04-15T14:45:08.271Z,3.60
2023-04-15T14:47:34.827Z,4.78
2023-04-15T14:50:02.313Z,3.53
2023-04-15T14:52:28.868Z,4.30
2023-04-15T14:54:55.398Z,6.95
2023-04-15T14:57:21.833Z,2.08
2023-04-15T14:59:48.221Z,4.43
2023-04-15T15:02:17.290Z,5.57
2023-04-15T15:04:53.050Z,5.53
2023-04-15T15:07:19.637Z,5.45
2023-04-15T15:09:46.767Z,3.55
2023-04-15T15:12:13.297Z,1.90
2023-04-15T15:14:39.704Z,4.60
2023-04-15T15:17:06.305Z,3.30
2023-04-15T15:19:33.061Z,3.03
2023-04-15T15:21:59.477Z,4.63
2023-04-15T15:24:26.137Z,3.60
2023-04-15T15:26:52.638Z,4.03
2023-04-15T15:29:19.091Z,4.85
2023-04-15T15:31:45.623Z,4.53
2023-04-15T15:34:12.270Z,3.15
2023-04-15T15:36:38.701Z,2.80
2023-04-15T15:39:05.358Z,3.97
2023-04-15T15:41:33.267Z,4.57
2023-04-15T15:43:59.947Z,6.78
2023-04-15T15:46:28.256Z,7.63
2023-04-15T15:48:54.897Z,6.55
2023-04-15T15:51:21.331Z,6.72
2023-04-15T15:53:49.736Z,4.65
2023-04-15T15:56:16.319Z,8.55
2023-04-15T15:58:45.433Z,6.07
2023-04-15T16:01:12.238Z,4.22
2023-04-15T16:03:39.490Z,5.47
2023-04-15T16:06:06.028Z,5.50
2023-04-15T16:08:32.496Z,4.20
2023-04-15T16:10:58.985Z,4.80
2023-04-15T16:13:25.562Z,4.95
2023-04-15T16:15:52.005Z,8.70
2023-04-15T16:18:18.672Z,3.10
2023-04-15T16:20:45.200Z,6.07
2023-04-15T16:23:16.281Z,4.82
2023-04-15T16:25:44.402Z,6.10
2023-04-15T16:28:25.093Z,4.95
2023-04-15T16:30:52.708Z,4.35
2023-04-15T16:33:19.294Z,5.25
2023-04-15T16:35:45.783Z,5.07
2023-04-15T16:38:12.263Z,3.60
2023-04-15T16:40:38.789Z,8.40
2023-04-15T16:43:07.325Z,4.75
2023-04-15T16:45:33.974Z,4.75
2023-04-15T16:48:00.536Z,6.18
2023-04-15T16:50:27.229Z,5.15
2023-04-15T16:52:54.116Z,5.40
2023-04-15T16:55:20.615Z,4.50
2023-04-15T16:58:02.320Z,9.65
2023-04-15T17:00:31.477Z,3.95
2023-04-15T17:02:58.965Z,8.20
2023-04-15T17:05:27.519Z,4.50
2023-04-15T17:07:54.318Z,5.40
2023-04-15T17:10:20.996Z,3.20
2023-04-15T17:12:51.901Z,6.72
2023-04-15T17:15:19.642Z,6.35
2023-04-15T17:17:46.179Z,5.30
2023-04-15T17:20:12.630Z,5.47
2023-04-15T17:22:39.172Z,6.15
2023-04-15T17:25:06.124Z,7.35
2023-04-15T17:27:32.534Z,4.95
2023-04-15T17:29:59.032Z,8.13
2023-04-15T17:32:31.543Z,10.10
2023-04-15T17:34:58.223Z,5.93
2023-04-15T17:37:24.702Z,5.75
2023-04-15T17:39:52.058Z,5.95
2023-04-15T17:42:18.588Z,5.22
2023-04-15T17:44:45.822Z,5.97
2023-04-15T17:47:12.505Z,5.53
2023-04-15T17:49:39.017Z,3.13
2023-04-15T17:52:05.868Z,7.38
2023-04-15T17:54:32.436Z,5.57
2023-04-15T17:57:00.029Z,5.07
2023-04-15T17:59:27.619Z,5.28
2023-04-15T18:01:54.194Z,5.53
2023-04-15T18:04:21.754Z,5.38
2023-04-15T18:06:49.193Z,2.90
2023-04-15T18:09:15.690Z,5.18
2023-04-15T18:11:43.896Z,5.70
2023-04-15T18:14:11.320Z,9.10
2023-04-15T18:16:40.123Z,5.13
2023-04-15T18:19:06.679Z,3.88
2023-04-15T18:21:33.181Z,4.32
2023-04-15T18:23:59.674Z,1.52
2023-04-15T18:26:27.532Z,5.50
2023-04-15T18:28:55.002Z,2.92
2023-04-15T18:31:21.522Z,2.50
2023-04-15T18:33:48.082Z,7.22
2023-04-15T18:36:14.830Z,3.97
2023-04-15T18:38:41.406Z,2.78
2023-04-15T18:41:09.989Z,6.20
2023-04-15T18:43:36.689Z,3.75
2023-04-15T18:46:08.380Z,5.47
2023-04-15T18:48:34.906Z,8.82
2023-04-15T18:51:01.461Z,3.97
2023-04-15T18:53:28.084Z,7.05
2023-04-15T18:55:56.212Z,2.95
2023-04-15T18:58:22.666Z,5.65
2023-04-15T19:00:49.187Z,2.70
2023-04-15T19:03:15.897Z,3.00
2023-04-15T19:05:42.500Z,3.97
2023-04-15T19:08:09.076Z,4.78
2023-04-15T19:10:35.626Z,7.60
2023-04-15T19:13:04.232Z,3.92
2023-04-15T19:15:31.060Z,4.88
2023-04-15T19:17:57.475Z,6.88
2023-04-15T19:20:23.995Z,4.40
2023-04-15T19:22:50.705Z,4.55
2023-04-15T19:25:17.350Z,8.70
2023-04-15T19:27:43.834Z,5.18
2023-04-15T19:30:10.298Z,7.38
2023-04-15T19:32:36.835Z,6.85
2023-04-15T19:35:07.577Z,3.47
2023-04-15T19:37:35.273Z,4.22
2023-04-15T19:40:01.781Z,7.85
2023-04-15T19:42:28.433Z,6.80
2023-04-15T19:44:55.055Z,5.45
2023-04-15T19:47:22.442Z,5.15
2023-04-15T19:49:50.353Z,5.88
2023-04-15T19:52:18.654Z,5.30
2023-04-15T19:54:45.136Z,8.98
2023-04-15T19:57:11.746Z,7.43
2023-04-15T19:59:38.316Z,6.03
2023-04-15T20:02:07.136Z,5.00
2023-04-15T20:04:34.005Z,4.55
2023-04-15T20:07:00.573Z,4.63
2023-04-15T20:09:27.031Z,5.22
2023-04-15T20:12:10.040Z,4.65
2023-04-15T20:14:40.052Z,5.22
2023-04-15T20:17:06.502Z,2.67
2023-04-15T20:19:33.312Z,6.30
2023-04-15T20:21:59.766Z,4.47
2023-04-15T20:24:26.325Z,3.85
2023-04-15T20:26:52.734Z,3.22
2023-04-15T20:29:19.225Z,2.47
2023-04-15T20:31:45.820Z,4.50
2023-04-15T20:34:12.438Z,3.92
2023-04-15T20:36:38.951Z,5.38
2023-04-15T20:39:05.755Z,5.65
2023-04-15T20:41:32.389Z,3.75
2023-04-15T20:43:58.781Z,5.70
2023-04-15T20:46:27.318Z,9.25
2023-04-15T20:48:54.222Z,5.85
2023-04-15T20:51:20.796Z,7.00
2023-04-15T20:53:47.266Z,7.35
2023-04-15T20:56:13.716Z,4.22
2023-04-15T20:58:40.336Z,9.75
2023-04-15T21:01:06.814Z,6.57
2023-04-15T21:03:33.697Z,6.75
2023-04-15T21:06:00.414Z,5.93
2023-04-15T21:08:29.598Z,3.47
2023-04-15T21:10:56.801Z,6.05
2023-04-15T21:13:23.937Z,4.45
2023-04-15T21:15:53.319Z,4.05
2023-04-15T21:18:21.218Z,5.90
2023-04-15T21:20:56.491Z,3.17
2023-04-15T21:23:23.005Z,8.18
2023-04-15T21:25:49.411Z,6.63
2023-04-15T21:28:15.844Z,6.30
2023-04-15T21:30:42.338Z,4.72
2023-04-15T21:33:09.020Z,6.80
2023-04-15T21:35:35.620Z,7.25
2023-04-15T21:38:02.178Z,4.85
2023-04-15T21:40:29.647Z,8.23
2023-04-15T21:42:56.171Z,5.40
2023-04-15T21:45:22.627Z,3.03
2023-04-15T21:48:01.249Z,5.07
2023-04-15T21:50:36.760Z,6.85
2023-04-15T21:53:04.042Z,5.53
2023-04-15T21:55:30.540Z,5.90
2023-04-15T21:57:58.003Z,3.38
2023-04-15T22:00:24.796Z,5.32
2023-04-15T22:02:51.785Z,3.45
2023-04-15T22:05:18.383Z,3.88
2023-04-15T22:07:44.958Z,5.53
2023-04-15T22:10:11.669Z,3.53
2023-04-15T22:12:41.752Z,4.70
2023-04-15T22:15:08.676Z,6.00
2023-04-15T22:17:35.326Z,5.78
2023-04-15T22:20:02.321Z,7.03
2023-04-15T22:22:37.724Z,5.43
2023-04-15T22:25:11.111Z,7.55
2023-04-15T22:27:37.531Z,5.68
2023-04-15T22:30:04.966Z,5.97
2023-04-15T22:32:31.559Z,5.85
2023-04-15T22:34:58.070Z,4.05
2023-04-15T22:37:24.648Z,5.53
2023-04-15T22:39:51.772Z,5.90
2023-04-15T22:42:18.279Z,7.53
2023-04-15T22:44:44.686Z,7.80
2023-04-15T22:47:11.227Z,5.63
2023-04-15T22:49:37.737Z,5.22
2023-04-15T22:52:04.338Z,7.35
2023-04-15T22:54:31.121Z,8.23
2023-04-15T22:56:57.853Z,11.77
2023-04-15T22:59:24.495Z,8.32
2023-04-15T23:01:51.127Z,6.75
2023-04-15T23:04:27.464Z,5.60
2023-04-15T23:06:54.582Z,4.88
2023-04-15T23:09:21.450Z,5.97
2023-04-15T23:11:47.950Z,6.63
2023-04-15T23:14:14.347Z,6.22
2023-04-15T23:16:40.894Z,6.35
2023-04-15T23:19:07.958Z,8.27
2023-04-15T23:21:34.789Z,7.50
2023-04-15T23:24:01.711Z,6.95
2023-04-15T23:26:28.271Z,9.90
2023-04-15T23:28:55.661Z,4.47
2023-04-15T23:31:22.150Z,3.92
2023-04-15T23:33:48.613Z,4.95
2023-04-15T23:36:15.125Z,5.68
2023-04-15T23:38:42.056Z,8.00
2023-04-15T23:41:09.834Z,7.50
2023-04-15T23:43:36.561Z,9.10
2023-04-15T23:46:03.348Z,10.13
2023-04-15T23:48:30.084Z,8.50
2023-04-15T23:50:56.823Z,4.80
2023-04-15T23:53:23.591Z,6.28
2023-04-15T23:55:50.014Z,7.32
2023-04-15T23:58:16.433Z,7.82
